Time;durP1;ratioP1;P1;durP2;ratioP2;P2;SDS_P1;SDS_P2;PMS_P1;PMS_P2;Temp;Humidity;BMP_temperature;BMP_pressure;BME280_temperature;BME280_humidity;BME280_pressure;Samples;Min_cycle;Max_cycle;Signal;HPM_P1;HPM_P2
2023/07/29 00:00:53;;;;;;;2.27;2.07;;;16.90;1.00;;;;;;5115147;28;20172;-42
2023/07/29 00:03:19;;;;;;;2.43;2.00;;;16.90;1.00;;;;;;5115997;28;20191;-46
2023/07/29 00:05:45;;;;;;;6.17;2.40;;;17.00;1.00;;;;;;5115244;28;20635;-43
2023/07/29 00:08:11;;;;;;;2.80;2.20;;;17.00;1.00;;;;;;5115279;28;20265;-42
2023/07/29 00:10:37;;;;;;;2.33;2.10;;;17.00;1.00;;;;;;5115362;28;20528;-43
2023/07/29 00:13:04;;;;;;;2.80;2.20;;;17.00;1.00;;;;;;5114527;28;20176;-42
2023/07/29 00:15:30;;;;;;;8.50;2.93;;;17.00;1.00;;;;;;5095831;28;20437;-43
2023/07/29 00:17:55;;;;;;;2.50;1.97;;;16.90;1.00;;;;;;5116567;28;20816;-43
2023/07/29 00:20:21;;;;;;;2.67;2.23;;;16.90;1.00;;;;;;5116195;28;20782;-43
2023/07/29 00:22:49;;;;;;;3.83;2.40;;;16.90;1.00;;;;;;5099065;28;20211;-47
2023/07/29 00:25:16;;;;;;;2.80;2.40;;;16.90;1.00;;;;;;5115239;28;20493;-44
2023/07/29 00:27:42;;;;;;;2.13;1.97;;;16.90;1.00;;;;;;5097592;28;20468;-47
2023/07/29 00:30:09;;;;;;;3.00;2.40;;;16.90;1.00;;;;;;5099961;28;20923;-45
2023/07/29 00:32:36;;;;;;;2.60;2.00;;;16.90;1.00;;;;;;5118071;28;20850;-45
2023/07/29 00:35:01;;;;;;;2.23;2.00;;;16.90;1.00;;;;;;5100522;28;20480;-49
2023/07/29 00:37:28;;;;;;;3.83;2.10;;;17.00;1.00;;;;;;5100623;28;20422;-46
2023/07/29 00:39:54;;;;;;;2.73;1.97;;;17.00;1.00;;;;;;5117136;28;20211;-43
2023/07/29 00:42:20;;;;;;;4.00;2.07;;;17.00;1.00;;;;;;5118864;28;20429;-42
2023/07/29 00:44:45;;;;;;;2.60;2.20;;;17.00;1.00;;;;;;5118943;28;20734;-45
2023/07/29 00:47:11;;;;;;;3.60;2.20;;;17.00;1.00;;;;;;5118465;28;20275;-44
2023/07/29 00:49:37;;;;;;;2.20;2.00;;;17.00;1.00;;;;;;5099170;28;20544;-47
2023/07/29 00:52:03;;;;;;;2.47;2.27;;;17.00;1.00;;;;;;5116962;28;20432;-47
2023/07/29 00:54:29;;;;;;;3.03;2.33;;;17.00;1.00;;;;;;5117941;28;20187;-44
2023/07/29 00:56:54;;;;;;;2.73;2.47;;;17.00;1.00;;;;;;5115885;28;20530;-49
2023/07/29 00:59:20;;;;;;;2.90;1.83;;;17.00;1.00;;;;;;5115547;28;20624;-48
2023/07/29 01:01:47;;;;;;;3.53;2.20;;;17.00;1.00;;;;;;5115432;28;20176;-44
2023/07/29 01:04:13;;;;;;;2.30;1.93;;;17.00;1.00;;;;;;5114322;28;20186;-44
2023/07/29 01:07:18;;;;;;;2.97;2.30;;;17.00;1.00;;;;;;5096419;28;20826;-45
2023/07/29 01:09:58;;;;;;;2.60;2.40;;;17.00;1.00;;;;;;5114079;28;20184;-45
2023/07/29 01:12:55;;;;;;;3.43;2.50;;;17.00;1.00;;;;;;5111927;28;20691;-44
2023/07/29 01:15:36;;;;;;;4.20;2.80;;;17.00;1.00;;;;;;5093087;28;20428;-43
2023/07/29 01:18:06;;;;;;;2.80;2.30;;;17.00;1.00;;;;;;5089354;28;20495;-43
2023/07/29 01:20:39;;;;;;;4.17;2.57;;;17.00;1.00;;;;;;5098427;28;20468;-43
2023/07/29 01:23:04;;;;;;;2.67;2.13;;;16.90;1.00;;;;;;5096805;28;20443;-45
2023/07/29 01:25:30;;;;;;;3.30;2.03;;;17.00;1.00;;;;;;5097718;28;20430;-43
2023/07/29 01:27:56;;;;;;;2.40;2.20;;;16.90;1.00;;;;;;5117665;28;20175;-44
2023/07/29 01:30:24;;;;;;;3.13;1.90;;;16.90;1.00;;;;;;5084419;27;20185;-43
2023/07/29 01:33:19;;;;;;;2.37;2.00;;;16.90;1.00;;;;;;5107255;27;20550;-46
2023/07/29 01:35:52;;;;;;;3.00;1.80;;;16.90;1.00;;;;;;5133349;27;20497;-45
2023/07/29 01:38:34;;;;;;;2.37;2.17;;;16.90;1.00;;;;;;5118047;28;20829;-43
2023/07/29 01:41:04;;;;;;;3.07;2.77;;;16.90;1.00;;;;;;5135595;28;20413;-43
2023/07/29 01:43:30;;;;;;;3.27;2.97;;;16.90;1.00;;;;;;5115988;28;20469;-44
2023/07/29 01:45:56;;;;;;;3.33;2.20;;;16.90;1.00;;;;;;5116373;28;20432;-44
2023/07/29 01:48:22;;;;;;;3.57;2.37;;;16.90;1.00;;;;;;5135181;28;20428;-44
2023/07/29 01:50:47;;;;;;;2.20;2.00;;;16.90;1.00;;;;;;5136348;28;20659;-43
2023/07/29 01:53:13;;;;;;;3.40;2.40;;;16.80;1.00;;;;;;5135967;28;20179;-43
2023/07/29 01:55:39;;;;;;;2.90;2.57;;;16.80;1.00;;;;;;5135698;28;20674;-47
2023/07/29 01:58:05;;;;;;;2.17;1.97;;;16.80;1.00;;;;;;5136215;28;20179;-44
2023/07/29 02:00:30;;;;;;;3.30;2.23;;;16.80;1.00;;;;;;5136208;28;20424;-44
2023/07/29 02:02:56;;;;;;;3.13;2.13;;;16.80;1.00;;;;;;5135529;28;20175;-45
2023/07/29 02:05:21;;;;;;;3.50;2.23;;;16.80;1.00;;;;;;5135804;28;20175;-42
2023/07/29 02:07:47;;;;;;;5.10;2.30;;;16.80;1.00;;;;;;5135577;28;20183;-45
2023/07/29 02:10:13;;;;;;;2.73;2.10;;;16.80;1.00;;;;;;5133624;28;20183;-46
2023/07/29 02:12:38;;;;;;;3.30;2.50;;;16.70;1.00;;;;;;5132314;28;20171;-45
2023/07/29 02:15:05;;;;;;;3.90;2.60;;;16.70;1.00;;;;;;5125629;28;20712;-43
2023/07/29 02:17:31;;;;;;;2.30;2.10;;;16.70;1.00;;;;;;5111236;28;20175;-43
2023/07/29 02:19:56;;;;;;;2.40;1.83;;;16.70;1.00;;;;;;5112175;28;21034;-46
2023/07/29 02:22:22;;;;;;;3.37;2.43;;;16.70;1.00;;;;;;5108355;28;20425;-45
2023/07/29 02:24:48;;;;;;;2.40;2.20;;;16.60;1.00;;;;;;5109993;28;20183;-42
2023/07/29 02:27:13;;;;;;;3.53;2.47;;;16.60;1.00;;;;;;5111976;28;20164;-42
2023/07/29 02:29:39;;;;;;;3.20;2.20;;;16.60;1.00;;;;;;5114315;28;20785;-43
2023/07/29 02:32:05;;;;;;;3.87;2.83;;;16.60;1.00;;;;;;5114883;28;20572;-43
2023/07/29 02:38:11;;;;;;;3.53;2.20;;;16.60;1.00;;;;;;5135847;28;20284;-46
2023/07/29 02:40:37;;;;;;;3.83;2.53;;;16.60;1.00;;;;;;5128915;28;20449;-43
2023/07/29 02:43:03;;;;;;;3.50;2.10;;;16.60;1.00;;;;;;5115475;28;20176;-44
2023/07/29 02:45:29;;;;;;;4.90;2.47;;;16.60;1.00;;;;;;5115936;28;20754;-44
2023/07/29 02:47:54;;;;;;;4.30;3.53;;;16.60;1.00;;;;;;5116978;28;20176;-44
2023/07/29 02:50:20;;;;;;;3.30;2.30;;;16.60;1.00;;;;;;5120216;28;20270;-43
2023/07/29 02:52:46;;;;;;;2.30;2.10;;;16.60;1.00;;;;;;5120571;28;20187;-43
2023/07/29 02:55:11;;;;;;;4.47;2.80;;;16.60;1.00;;;;;;5124269;27;20183;-43
2023/07/29 02:57:37;;;;;;;5.23;3.30;;;16.60;1.00;;;;;;5141157;27;20217;-45
2023/07/29 03:00:03;;;;;;;3.23;2.97;;;16.70;1.00;;;;;;5140050;27;20641;-43
2023/07/29 03:02:28;;;;;;;2.63;2.43;;;16.70;1.00;;;;;;5140658;27;20182;-42
2023/07/29 03:04:54;;;;;;;2.60;2.40;;;16.70;1.00;;;;;;5140123;27;20699;-43
2023/07/29 03:07:20;;;;;;;3.57;3.00;;;16.70;1.00;;;;;;5138128;27;20183;-44
2023/07/29 03:09:45;;;;;;;3.77;3.00;;;16.70;1.00;;;;;;5138379;27;20198;-44
2023/07/29 03:12:11;;;;;;;2.43;2.23;;;16.70;1.00;;;;;;5138149;27;20496;-44
2023/07/29 03:14:37;;;;;;;4.60;3.63;;;16.70;1.00;;;;;;5137803;27;20179;-44
2023/07/29 03:17:04;;;;;;;3.10;2.80;;;16.70;1.00;;;;;;5138249;27;20265;-44
2023/07/29 03:19:30;;;;;;;3.40;2.60;;;16.70;1.00;;;;;;5138671;27;20213;-45
2023/07/29 03:21:55;;;;;;;4.00;2.70;;;16.70;1.00;;;;;;5123234;27;20842;-44
2023/07/29 03:24:21;;;;;;;2.73;2.53;;;16.70;1.00;;;;;;5117958;28;20175;-44
2023/07/29 03:26:46;;;;;;;3.03;2.60;;;16.70;1.00;;;;;;5121073;27;20322;-42
2023/07/29 03:29:12;;;;;;;2.50;2.30;;;16.70;1.00;;;;;;5138980;27;20175;-45
2023/07/29 03:31:38;;;;;;;3.50;3.10;;;16.70;1.00;;;;;;5138729;27;20210;-43
2023/07/29 03:34:03;;;;;;;3.20;2.90;;;16.70;1.00;;;;;;5138790;27;20234;-48
2023/07/29 03:36:29;;;;;;;3.23;2.90;;;16.70;1.00;;;;;;5139111;27;20825;-43
2023/07/29 03:38:55;;;;;;;2.90;2.70;;;16.80;1.00;;;;;;5138381;27;20203;-43
2023/07/29 03:41:20;;;;;;;3.73;3.37;;;16.80;1.00;;;;;;5137474;27;20186;-44
2023/07/29 03:43:46;;;;;;;3.70;3.03;;;16.80;1.00;;;;;;5118235;28;20167;-44
2023/07/29 03:46:11;;;;;;;3.87;2.70;;;16.80;1.00;;;;;;5116783;28;20175;-45
2023/07/29 03:48:37;;;;;;;3.47;2.60;;;16.80;1.00;;;;;;5128754;27;20190;-43
2023/07/29 03:51:03;;;;;;;2.73;2.53;;;16.80;1.00;;;;;;5139729;27;20270;-49
2023/07/29 03:53:28;;;;;;;4.00;3.07;;;16.90;1.00;;;;;;5138956;27;20202;-44
2023/07/29 03:55:54;;;;;;;3.23;2.93;;;16.90;1.00;;;;;;5138822;27;20209;-44
2023/07/29 03:58:19;;;;;;;3.63;3.20;;;16.90;1.00;;;;;;5138513;27;20624;-44
2023/07/29 04:00:45;;;;;;;3.17;2.87;;;16.90;1.00;;;;;;5137649;27;20250;-43
2023/07/29 04:03:11;;;;;;;4.57;3.00;;;16.90;1.00;;;;;;5137888;27;20198;-45
2023/07/29 04:05:36;;;;;;;3.77;3.37;;;16.90;1.00;;;;;;5137705;27;20187;-45
2023/07/29 04:08:02;;;;;;;6.40;2.60;;;17.00;1.00;;;;;;5137999;27;20171;-45
2023/07/29 04:10:29;;;;;;;3.20;2.90;;;17.00;1.00;;;;;;5137658;27;20191;-46
2023/07/29 04:12:55;;;;;;;3.70;3.27;;;17.00;1.00;;;;;;5120761;27;20175;-45
2023/07/29 04:15:21;;;;;;;3.43;2.67;;;17.00;1.00;;;;;;5137182;27;20420;-45
2023/07/29 04:17:46;;;;;;;3.83;2.83;;;17.00;1.00;;;;;;5137705;27;20183;-47
2023/07/29 04:20:12;;;;;;;3.43;2.97;;;17.00;1.00;;;;;;5137975;27;20596;-45
2023/07/29 04:22:37;;;;;;;3.80;3.10;;;17.00;1.00;;;;;;5137831;27;20179;-44
2023/07/29 04:25:04;;;;;;;2.90;2.60;;;17.00;1.00;;;;;;5136958;27;20206;-45
2023/07/29 04:27:30;;;;;;;3.10;2.80;;;17.00;1.00;;;;;;5136955;27;20207;-44
2023/07/29 04:29:55;;;;;;;2.70;2.47;;;17.00;1.00;;;;;;5136395;27;20531;-44
2023/07/29 04:32:21;;;;;;;3.87;2.70;;;17.10;1.00;;;;;;5135662;27;20195;-44
2023/07/29 04:34:47;;;;;;;3.37;3.00;;;17.10;1.00;;;;;;5136334;27;20246;-45
2023/07/29 04:37:12;;;;;;;3.67;3.10;;;17.10;1.00;;;;;;5136073;27;20189;-46
2023/07/29 04:39:38;;;;;;;7.00;3.57;;;17.10;1.00;;;;;;5138041;27;20518;-43
2023/07/29 04:42:04;;;;;;;3.93;3.30;;;17.10;1.00;;;;;;5137997;27;20249;-44
2023/07/29 04:44:29;;;;;;;3.37;3.07;;;17.10;1.00;;;;;;5137458;27;20179;-46
2023/07/29 04:46:55;;;;;;;4.50;3.60;;;17.10;1.00;;;;;;5118165;27;20438;-43
2023/07/29 04:49:21;;;;;;;6.53;3.63;;;17.10;1.00;;;;;;5137384;27;20234;-43
2023/07/29 04:51:48;;;;;;;3.93;3.13;;;17.10;1.00;;;;;;5136951;27;20635;-46
2023/07/29 04:54:14;;;;;;;3.30;3.00;;;17.10;1.00;;;;;;5138158;27;20224;-46
2023/07/29 04:56:41;;;;;;;3.73;3.33;;;17.00;1.00;;;;;;5137485;27;20694;-46
2023/07/29 04:59:08;;;;;;;7.27;3.60;;;17.00;1.00;;;;;;5135787;27;20471;-47
2023/07/29 05:01:33;;;;;;;3.60;3.30;;;17.10;1.00;;;;;;5136040;27;20758;-45
2023/07/29 05:03:59;;;;;;;4.60;4.03;;;17.10;1.00;;;;;;5136618;27;20605;-44
2023/07/29 05:06:25;;;;;;;4.17;3.77;;;17.10;1.00;;;;;;5136694;27;20174;-47
2023/07/29 05:08:50;;;;;;;3.90;3.30;;;17.10;1.00;;;;;;5135055;27;20549;-45
2023/07/29 05:11:16;;;;;;;3.80;3.50;;;17.10;1.00;;;;;;5134662;27;20201;-44
2023/07/29 05:13:43;;;;;;;4.30;3.57;;;17.10;1.00;;;;;;5135588;27;20553;-43
2023/07/29 05:16:09;;;;;;;5.20;4.10;;;17.10;1.00;;;;;;5136494;27;20464;-46
2023/07/29 05:18:34;;;;;;;3.93;3.03;;;17.20;1.00;;;;;;5135251;27;20619;-44
2023/07/29 05:21:00;;;;;;;4.60;3.50;;;17.30;1.00;;;;;;5135005;27;20178;-46
2023/07/29 05:23:26;;;;;;;4.60;3.73;;;17.30;1.00;;;;;;5135371;27;20183;-46
2023/07/29 05:25:51;;;;;;;3.70;3.37;;;17.40;1.00;;;;;;5136507;27;20190;-46
2023/07/29 05:28:17;;;;;;;4.27;3.87;;;17.40;1.00;;;;;;5136707;27;20243;-44
2023/07/29 05:30:44;;;;;;;3.60;3.10;;;17.40;1.00;;;;;;5136621;27;20171;-43
2023/07/29 05:33:10;;;;;;;4.43;3.70;;;17.50;1.00;;;;;;5136189;27;20258;-44
2023/07/29 05:35:35;;;;;;;3.30;3.00;;;17.60;1.00;;;;;;5137961;27;20528;-44
2023/07/29 05:38:03;;;;;;;4.10;3.33;;;17.60;1.00;;;;;;5119460;27;20178;-45
2023/07/29 05:40:28;;;;;;;3.20;2.90;;;17.70;1.00;;;;;;5136970;27;20480;-45
2023/07/29 05:42:54;;;;;;;3.70;3.20;;;17.80;1.00;;;;;;5136196;27;20412;-47
2023/07/29 05:45:20;;;;;;;3.83;2.93;;;17.90;1.00;;;;;;5136466;27;20175;-47
2023/07/29 05:47:45;;;;;;;4.83;3.50;;;17.90;1.00;;;;;;5136119;27;20658;-44
2023/07/29 05:50:11;;;;;;;3.87;2.70;;;18.00;1.00;;;;;;5135674;27;20186;-45
2023/07/29 05:52:36;;;;;;;4.40;3.40;;;18.10;1.00;;;;;;5136479;27;20493;-45
2023/07/29 05:55:02;;;;;;;3.77;3.30;;;18.20;1.00;;;;;;5136170;27;20183;-44
2023/07/29 05:57:31;;;;;;;4.27;3.20;;;18.30;1.00;;;;;;5119710;27;20175;-45
2023/07/29 05:59:57;;;;;;;3.80;2.30;;;18.30;1.00;;;;;;5136150;27;20502;-43
2023/07/29 06:02:23;;;;;;;5.53;3.53;;;18.40;1.00;;;;;;5136800;27;20478;-45
2023/07/29 06:04:49;;;;;;;4.00;3.30;;;18.40;1.00;;;;;;5135191;27;20518;-44
2023/07/29 06:07:18;;;;;;;4.30;3.23;;;18.50;1.00;;;;;;5134466;27;20223;-44
2023/07/29 06:10:17;;;;;;;4.00;3.10;;;18.60;1.00;;;;;;5136302;27;20179;-47
2023/07/29 06:13:14;;;;;;;3.00;2.70;;;18.70;1.00;;;;;;5136763;28;20571;-45
2023/07/29 06:15:43;;;;;;;3.10;2.80;;;18.70;1.00;;;;;;5136088;28;20421;-46
2023/07/29 06:18:42;;;;;;;2.60;2.27;;;18.80;1.00;;;;;;5115662;28;20853;-45
2023/07/29 06:21:34;;;;;;;2.50;2.30;;;19.00;1.00;;;;;;5098777;27;20447;-43
2023/07/29 06:24:14;;;;;;;2.70;2.50;;;19.20;1.00;;;;;;5138591;27;20417;-45
2023/07/29 06:26:48;;;;;;;3.37;2.13;;;19.30;99.90;;;;;;5120518;27;20424;-43
2023/07/29 06:41:30;;;;;;;5.27;2.87;;;19.10;1.00;;;;;;5091652;28;20895;-44
2023/07/29 06:44:03;;;;;;;3.80;2.17;;;19.00;1.00;;;;;;5079481;28;20538;-44
2023/07/29 06:46:36;;;;;;;5.40;2.63;;;18.90;1.00;;;;;;5075568;28;20430;-45
2023/07/29 06:49:20;;;;;;;4.57;2.70;;;18.70;1.00;;;;;;5074487;28;20431;-47
2023/07/29 06:52:40;;;;;;;6.50;2.80;;;18.70;1.00;;;;;;5077361;28;20434;-43
2023/07/29 06:55:12;;;;;;;5.50;2.90;;;18.70;1.00;;;;;;5090886;28;20832;-53
2023/07/29 06:58:17;;;;;;;3.23;2.77;;;18.60;1.00;;;;;;5096428;28;20433;-44
2023/07/29 07:01:03;;;;;;;4.00;3.03;;;18.60;1.00;;;;;;5096860;28;20834;-45
2023/07/29 07:03:29;;;;;;;6.37;3.13;;;18.60;1.00;;;;;;5096740;28;20516;-45
2023/07/29 07:06:22;;;;;;;2.07;1.87;;;18.50;1.00;;;;;;5096295;28;20399;-43
2023/07/29 07:08:53;;;;;;;3.37;1.77;;;18.50;1.00;;;;;;5097277;28;20410;-42
2023/07/29 07:11:24;;;;;;;4.80;2.50;;;18.50;1.00;;;;;;5097884;28;20414;-46
2023/07/29 07:14:13;;;;;;;5.43;1.97;;;18.50;1.00;;;;;;5078974;28;20440;-47
2023/07/29 07:16:46;;;;;;;3.47;2.23;;;18.60;1.00;;;;;;5094115;28;20415;-47
2023/07/29 07:19:11;;;;;;;4.57;2.80;;;18.70;1.00;;;;;;5094272;28;20702;-43
2023/07/29 07:21:37;;;;;;;3.60;2.53;;;18.70;1.00;;;;;;5094705;28;20461;-42
2023/07/29 07:24:03;;;;;;;3.40;2.80;;;18.70;1.00;;;;;;5096200;28;20177;-42
2023/07/29 07:26:31;;;;;;;4.83;2.43;;;18.70;1.00;;;;;;5096284;28;20169;-41
2023/07/29 07:29:02;;;;;;;2.67;2.37;;;18.80;1.00;;;;;;5078146;28;20426;-43
2023/07/29 07:31:38;;;;;;;2.70;2.17;;;18.90;1.00;;;;;;5097092;28;20444;-44
2023/07/29 07:34:26;;;;;;;3.70;2.03;;;19.10;1.00;;;;;;5091817;28;20526;-44
2023/07/29 07:37:26;;;;;;;2.63;1.90;;;19.30;99.90;;;;;;5048753;28;20479;-45
2023/07/29 07:40:00;;;;;;;2.67;2.10;;;19.50;99.90;;;;;;5090537;28;20490;-44
2023/07/29 07:42:26;;;;;;;2.00;1.70;;;19.50;99.90;;;;;;5094119;28;20434;-41
2023/07/29 07:45:38;;;;;;;2.50;2.20;;;19.50;99.90;;;;;;5093163;28;21060;-45
2023/07/29 07:48:06;;;;;;;3.03;2.00;;;19.50;99.90;;;;;;5082294;28;20196;-41
2023/07/29 07:50:47;;;;;;;3.70;1.67;;;19.60;99.90;;;;;;5094985;28;20433;-42
2023/07/29 07:53:30;;;;;;;2.47;1.77;;;19.70;99.90;;;;;;5095058;28;20824;-45
2023/07/29 07:56:18;;;;;;;3.10;1.87;;;19.80;99.90;;;;;;5096143;28;20782;-43
2023/07/29 07:59:07;;;;;;;4.40;1.60;;;20.00;99.90;;;;;;5096512;28;20776;-46
2023/07/29 08:01:38;;;;;;;3.10;1.67;;;20.20;99.90;;;;;;5096099;28;20445;-41
2023/07/29 08:19:00;;;;;;;2.67;1.30;;;21.50;99.90;;;;;;5107912;28;20231;-42
2023/07/29 08:50:24;;;;;;;1.80;1.63;;;24.20;1.00;;;;;;5123870;27;20432;-46
2023/07/29 08:56:53;;;;;;;2.40;1.70;;;23.10;1.00;;;;;;5052288;28;20825;-43
2023/07/29 08:59:20;;;;;;;5.13;1.80;;;23.10;1.00;;;;;;5035906;28;20567;-44
2023/07/29 09:01:48;;;;;;;3.47;2.00;;;23.30;1.00;;;;;;5031349;28;20734;-42
2023/07/29 09:04:15;;;;;;;3.00;1.90;;;23.50;14.00;;;;;;5049349;28;20801;-44
2023/07/29 09:06:43;;;;;;;2.50;1.80;;;23.50;99.90;;;;;;5049219;28;20425;-44
2023/07/29 09:09:10;;;;;;;1.83;1.73;;;23.30;6.50;;;;;;5049753;28;20440;-44
2023/07/29 09:11:37;;;;;;;3.03;2.13;;;23.30;99.30;;;;;;5047913;28;20475;-41
2023/07/29 09:14:03;;;;;;;2.30;1.80;;;23.60;99.90;;;;;;5047419;28;20428;-44
2023/07/29 09:16:30;;;;;;;2.40;1.90;;;24.00;99.90;;;;;;5047905;28;20498;-41
2023/07/29 09:19:01;;;;;;;2.83;1.93;;;24.50;99.90;;;;;;5048226;28;20837;-42
2023/07/29 09:21:28;;;;;;;1.90;1.70;;;24.80;1.00;;;;;;5048090;28;20471;-43
2023/07/29 09:23:54;;;;;;;2.10;1.70;;;25.50;1.00;;;;;;5047551;28;20490;-42
2023/07/29 09:26:24;;;;;;;3.13;2.00;;;25.70;99.90;;;;;;5032890;28;20523;-41
2023/07/29 09:28:55;;;;;;;2.97;2.00;;;25.50;1.00;;;;;;5050762;28;20444;-44
2023/07/29 09:31:22;;;;;;;1.90;1.70;;;25.70;1.00;;;;;;5050465;28;20927;-42
2023/07/29 09:33:48;;;;;;;2.23;1.80;;;25.60;99.90;;;;;;5096418;28;20441;-42
2023/07/29 09:36:14;;;;;;;2.73;2.17;;;25.30;99.90;;;;;;5111187;28;20493;-44
2023/07/29 09:38:39;;;;;;;2.73;1.60;;;25.00;1.00;;;;;;5112788;28;20466;-42
2023/07/29 09:41:05;;;;;;;2.00;1.73;;;25.20;1.00;;;;;;5114524;28;20425;-42
2023/07/29 09:43:34;;;;;;;2.63;1.53;;;25.80;1.00;;;;;;5114962;28;20238;-42
2023/07/29 09:46:01;;;;;;;3.73;2.10;;;26.10;1.00;;;;;;5095299;28;20184;-44
2023/07/29 09:48:28;;;;;;;3.40;1.93;;;26.50;1.00;;;;;;5112719;28;20422;-42
2023/07/29 09:50:55;;;;;;;8.70;2.00;;;26.80;1.00;;;;;;5112425;28;20783;-45
2023/07/29 09:53:21;;;;;;;2.10;1.90;;;26.80;1.00;;;;;;5112371;28;20433;-42
2023/07/29 09:55:48;;;;;;;3.30;2.30;;;26.80;99.90;;;;;;5112905;28;20429;-41
2023/07/29 09:58:14;;;;;;;3.53;2.60;;;27.40;99.90;;;;;;5112562;28;20453;-45
2023/07/29 10:00:40;;;;;;;2.53;2.10;;;28.30;99.90;;;;;;5093312;28;20497;-43
2023/07/29 10:03:07;;;;;;;2.80;2.60;;;28.50;99.90;;;;;;5093377;28;20728;-42
2023/07/29 10:05:35;;;;;;;2.70;2.50;;;28.20;61.70;;;;;;5112280;28;20422;-42
2023/07/29 10:08:01;;;;;;;2.40;2.20;;;28.30;34.70;;;;;;5110762;28;20418;-42
2023/07/29 10:10:28;;;;;;;3.47;2.63;;;27.70;1.00;;;;;;5093901;28;20527;-44
2023/07/29 10:12:54;;;;;;;2.67;2.30;;;27.30;1.00;;;;;;5113078;28;20696;-42
2023/07/29 10:15:21;;;;;;;3.87;2.40;;;27.20;1.40;;;;;;5094439;28;20437;-44
2023/07/29 10:17:47;;;;;;;2.43;2.23;;;27.80;1.00;;;;;;5114214;28;20648;-42
2023/07/29 10:20:12;;;;;;;2.80;2.13;;;28.00;1.00;;;;;;5113777;28;20468;-45
2023/07/29 10:22:40;;;;;;;2.63;2.43;;;28.00;1.00;;;;;;5113785;28;20804;-42
2023/07/29 10:25:15;;;;;;;3.43;2.27;;;28.10;1.00;;;;;;5096414;28;20288;-44
2023/07/29 10:27:50;;;;;;;2.53;2.10;;;29.00;1.00;;;;;;5114310;28;20432;-44
2023/07/29 10:30:15;;;;;;;2.37;2.17;;;30.00;1.00;;;;;;5094105;28;21126;-43
2023/07/29 10:32:44;;;;;;;2.40;2.20;;;30.60;1.00;;;;;;5111578;28;20908;-43
2023/07/29 10:35:10;;;;;;;2.90;2.70;;;31.40;1.00;;;;;;5078911;28;20188;-42
2023/07/29 10:37:37;;;;;;;3.10;2.80;;;30.30;1.00;;;;;;5090706;28;20453;-43
2023/07/29 10:40:06;;;;;;;3.00;2.27;;;30.30;1.00;;;;;;5083701;28;20461;-44
2023/07/29 10:42:32;;;;;;;2.73;2.53;;;30.80;1.00;;;;;;5084495;28;20518;-42
2023/07/29 10:44:58;;;;;;;3.50;2.47;;;30.70;1.00;;;;;;5111517;28;20746;-43
2023/07/29 10:47:29;;;;;;;3.07;2.77;;;30.00;1.00;;;;;;5112511;28;20180;-41
2023/07/29 10:49:57;;;;;;;2.70;2.50;;;29.30;1.00;;;;;;5114325;28;20579;-41
2023/07/29 10:52:35;;;;;;;4.43;2.40;;;29.40;1.00;;;;;;5095588;28;20440;-42
2023/07/29 10:55:03;;;;;;;3.70;2.70;;;30.20;1.00;;;;;;5114777;28;20649;-42
2023/07/29 10:57:36;;;;;;;2.30;2.07;;;30.80;1.00;;;;;;5113125;28;20396;-44
2023/07/29 11:00:04;;;;;;;2.67;2.47;;;31.30;1.00;;;;;;5113949;28;20529;-41
2023/07/29 11:02:32;;;;;;;3.03;2.73;;;30.90;1.00;;;;;;5114009;28;20384;-41
2023/07/29 11:04:59;;;;;;;2.63;2.43;;;31.60;1.00;;;;;;5112418;28;20973;-44
2023/07/29 11:07:26;;;;;;;2.53;2.00;;;32.40;1.00;;;;;;5112680;28;20794;-43
2023/07/29 11:10:11;;;;;;;2.60;2.40;;;31.80;1.00;;;;;;5115263;28;20661;-42
2023/07/29 11:12:59;;;;;;;3.60;2.70;;;31.40;1.00;;;;;;5115258;28;20725;-44
2023/07/29 11:15:29;;;;;;;3.97;2.50;;;30.40;1.00;;;;;;5080381;28;20429;-45
2023/07/29 11:18:01;;;;;;;2.90;2.43;;;30.00;1.00;;;;;;5116017;28;20738;-41
2023/07/29 11:20:32;;;;;;;2.97;2.53;;;29.10;1.00;;;;;;5116694;28;20440;-43
2023/07/29 11:23:02;;;;;;;2.97;2.67;;;29.20;1.00;;;;;;5115712;28;20912;-42
2023/07/29 11:25:29;;;;;;;3.80;2.60;;;29.00;1.00;;;;;;5116913;28;20448;-42
2023/07/29 11:27:57;;;;;;;4.17;2.40;;;28.50;1.00;;;;;;5116978;28;20490;-44
2023/07/29 11:30:23;;;;;;;2.77;2.37;;;28.00;1.00;;;;;;5117599;28;20437;-43
2023/07/29 11:32:49;;;;;;;6.13;3.03;;;27.70;1.00;;;;;;5118106;28;20508;-43
2023/07/29 11:35:16;;;;;;;2.33;2.13;;;27.60;1.00;;;;;;5116130;28;20425;-43
2023/07/29 11:37:47;;;;;;;3.20;2.90;;;27.80;1.00;;;;;;5115513;28;20534;-41
2023/07/29 11:40:18;;;;;;;3.33;2.90;;;27.60;1.00;;;;;;5114346;28;20461;-43
2023/07/29 11:42:45;;;;;;;3.17;2.87;;;28.10;1.00;;;;;;5115587;28;20422;-43
2023/07/29 11:45:11;;;;;;;2.83;2.60;;;28.60;1.00;;;;;;5115402;28;20433;-43
2023/07/29 11:47:37;;;;;;;2.67;2.47;;;28.30;1.00;;;;;;5113412;28;20736;-44
2023/07/29 11:50:05;;;;;;;3.10;2.60;;;28.10;1.00;;;;;;5096382;28;20606;-43
2023/07/29 11:52:32;;;;;;;3.23;2.83;;;28.20;1.00;;;;;;5114696;28;20311;-43
2023/07/29 11:54:58;;;;;;;3.50;2.33;;;28.30;1.00;;;;;;5097640;28;20429;-43
2023/07/29 11:57:24;;;;;;;2.80;2.53;;;28.30;1.00;;;;;;5114569;28;20404;-42
2023/07/29 11:59:50;;;;;;;3.07;2.87;;;28.10;1.00;;;;;;5113049;28;20735;-43
2023/07/29 12:02:17;;;;;;;2.30;2.10;;;28.20;1.00;;;;;;5115017;28;20180;-43
2023/07/29 12:04:47;;;;;;;3.00;2.80;;;28.40;1.00;;;;;;5115129;28;20209;-41
2023/07/29 12:07:14;;;;;;;2.83;2.53;;;28.30;1.00;;;;;;5095664;28;20424;-45
2023/07/29 12:09:41;;;;;;;2.77;2.50;;;28.00;1.00;;;;;;5117108;28;20980;-43
2023/07/29 12:12:07;;;;;;;3.00;2.70;;;28.00;1.00;;;;;;5099007;28;20483;-44
2023/07/29 12:14:34;;;;;;;3.13;2.50;;;28.00;1.00;;;;;;5117736;28;20528;-43
2023/07/29 12:17:01;;;;;;;3.73;2.77;;;27.80;1.00;;;;;;5100060;28;20446;-42
2023/07/29 12:19:38;;;;;;;2.70;2.50;;;28.10;1.00;;;;;;5117323;28;20569;-43
2023/07/29 12:22:05;;;;;;;2.43;2.13;;;28.60;1.00;;;;;;5116896;28;20413;-42
2023/07/29 12:24:32;;;;;;;7.17;3.00;;;29.10;1.00;;;;;;5117873;28;20525;-42
2023/07/29 12:26:59;;;;;;;2.50;2.30;;;29.60;1.00;;;;;;5116918;28;20388;-45
2023/07/29 12:29:25;;;;;;;2.40;2.20;;;29.70;1.00;;;;;;5116582;28;20414;-43
2023/07/29 12:31:59;;;;;;;3.93;2.57;;;29.90;1.00;;;;;;5114754;28;20656;-43
2023/07/29 12:34:30;;;;;;;3.90;2.80;;;30.50;1.00;;;;;;5094732;28;20439;-43
2023/07/29 12:36:58;;;;;;;2.87;2.53;;;30.90;1.00;;;;;;5100870;28;20426;-45
2023/07/29 12:39:32;;;;;;;5.70;2.77;;;31.40;1.00;;;;;;5115092;28;20459;-44
2023/07/29 12:41:59;;;;;;;2.90;2.70;;;32.10;1.00;;;;;;5112675;28;20380;-43
2023/07/29 12:44:29;;;;;;;3.27;2.97;;;33.20;1.00;;;;;;5113649;28;20422;-42
2023/07/29 12:46:54;;;;;;;3.17;2.87;;;33.00;1.00;;;;;;5112708;28;20400;-43
2023/07/29 12:49:20;;;;;;;2.80;2.60;;;32.60;1.00;;;;;;5115562;28;20467;-43
2023/07/29 12:51:46;;;;;;;3.07;2.80;;;32.10;1.00;;;;;;5110242;28;20227;-45
2023/07/29 12:54:12;;;;;;;3.00;2.70;;;31.70;1.00;;;;;;5091643;28;20626;-43
2023/07/29 12:56:37;;;;;;;2.87;2.57;;;31.50;1.00;;;;;;5091662;28;20535;-44
2023/07/29 12:59:04;;;;;;;2.77;2.57;;;31.20;1.00;;;;;;5107509;28;20535;-41
2023/07/29 13:01:30;;;;;;;2.43;2.23;;;30.80;1.00;;;;;;5115392;28;20176;-43
2023/07/29 13:03:56;;;;;;;2.20;2.00;;;30.10;1.00;;;;;;5076356;28;20490;-43
2023/07/29 13:06:22;;;;;;;2.73;2.47;;;29.90;1.00;;;;;;5091812;28;20172;-43
2023/07/29 13:08:48;;;;;;;2.97;2.60;;;30.30;1.00;;;;;;5092936;28;20439;-43
2023/07/29 13:11:15;;;;;;;3.03;2.73;;;30.40;1.00;;;;;;5082723;28;20652;-45
2023/07/29 13:13:40;;;;;;;3.37;3.07;;;30.50;1.00;;;;;;5110707;28;20392;-44
2023/07/29 13:16:06;;;;;;;2.70;2.27;;;30.70;1.00;;;;;;5094099;28;20404;-43
2023/07/29 13:18:32;;;;;;;2.50;2.30;;;30.80;1.00;;;;;;5076850;28;20270;-44
2023/07/29 13:21:00;;;;;;;4.30;2.73;;;30.30;1.00;;;;;;5094720;28;20397;-44
2023/07/29 13:23:25;;;;;;;3.10;2.50;;;29.70;1.00;;;;;;5060292;28;20409;-44
2023/07/29 13:25:51;;;;;;;3.23;2.70;;;29.20;1.00;;;;;;5092901;28;20460;-41
2023/07/29 13:28:17;;;;;;;2.93;2.70;;;28.70;1.00;;;;;;5094281;28;20214;-45
2023/07/29 13:30:43;;;;;;;2.77;2.57;;;28.40;1.00;;;;;;5109197;28;20191;-45
2023/07/29 13:33:09;;;;;;;2.60;2.40;;;28.20;1.00;;;;;;5116227;28;20425;-46
2023/07/29 13:35:34;;;;;;;2.50;2.30;;;28.30;1.00;;;;;;5094120;28;20200;-44
2023/07/29 13:38:01;;;;;;;2.57;2.37;;;28.30;1.00;;;;;;5094815;28;20445;-49
2023/07/29 13:40:28;;;;;;;2.33;2.13;;;28.20;1.00;;;;;;5078326;28;20216;-44
2023/07/29 13:42:54;;;;;;;3.03;2.60;;;28.00;1.00;;;;;;5112085;28;20497;-44
2023/07/29 13:45:20;;;;;;;2.67;2.47;;;28.20;1.00;;;;;;5114071;28;20404;-44
2023/07/29 13:47:46;;;;;;;2.20;2.00;;;28.50;1.00;;;;;;5113650;28;20428;-46
2023/07/29 13:50:12;;;;;;;2.77;2.47;;;28.20;1.00;;;;;;5096881;28;20432;-44
2023/07/29 13:52:38;;;;;;;2.83;2.53;;;27.80;1.00;;;;;;5114945;28;20227;-43
2023/07/29 13:55:04;;;;;;;2.77;2.50;;;27.80;1.00;;;;;;5114025;28;20426;-45
2023/07/29 13:57:31;;;;;;;3.60;2.77;;;27.60;1.00;;;;;;5112216;28;20422;-47
2023/07/29 13:59:57;;;;;;;4.37;3.17;;;27.50;1.00;;;;;;5079313;28;20772;-43
2023/07/29 14:02:22;;;;;;;3.07;2.20;;;27.70;1.00;;;;;;5104864;28;20440;-43
2023/07/29 14:04:48;;;;;;;3.17;2.87;;;27.70;1.00;;;;;;5095974;28;20825;-45
2023/07/29 14:07:14;;;;;;;3.33;2.67;;;27.60;1.00;;;;;;5095299;28;20180;-44